Time;durP1;ratioP1;P1;durP2;ratioP2;P2;SDS_P1;SDS_P2;PMS_P1;PMS_P2;Temp;Humidity;BMP_temperature;BMP_pressure;BME280_temperature;BME280_humidity;BME280_pressure;Samples;Min_cycle;Max_cycle;Signal;HPM_P1;HPM_P2
2021/03/16 00:02:21;;;;;;;5.63;1.55;;;;;;;7.64;67.37;101490.03;6251040;22;20015;-76
2021/03/16 00:05:12;;;;;;;4.97;1.90;;;;;;;7.62;67.63;101495.72;6270979;22;19999;-76
2021/03/16 00:07:45;;;;;;;6.30;1.35;;;;;;;7.62;67.53;101506.59;6300389;22;20008;-74
2021/03/16 00:10:37;;;;;;;5.45;1.63;;;;;;;7.45;67.54;101489.94;6270853;22;20003;-75
2021/03/16 00:13:03;;;;;;;4.75;1.67;;;;;;;7.42;68.18;101495.00;6212783;22;20418;-75
2021/03/16 00:15:33;;;;;;;2.10;1.38;;;;;;;7.33;67.74;101489.00;6265010;22;20086;-77
2021/03/16 00:18:06;;;;;;;2.75;1.33;;;;;;;7.49;67.33;101512.09;6275687;22;20069;-74
2021/03/16 00:20:32;;;;;;;2.80;1.10;;;;;;;7.36;67.67;101491.28;6276064;22;20430;-78
2021/03/16 00:22:58;;;;;;;3.85;1.30;;;;;;;7.29;68.44;101490.47;6277286;22;20026;-73
2021/03/16 00:25:23;;;;;;;5.88;1.27;;;;;;;7.35;68.11;101514.09;6272622;22;20395;-75
2021/03/16 00:27:48;;;;;;;3.08;1.98;;;;;;;7.43;68.28;101521.16;6279524;22;20003;-73
2021/03/16 00:30:14;;;;;;;2.85;1.35;;;;;;;7.42;68.63;101530.38;6278065;22;20003;-75
2021/03/16 00:32:40;;;;;;;3.35;1.65;;;;;;;7.39;68.71;101523.47;6276975;22;20034;-76
2021/03/16 00:35:06;;;;;;;2.92;1.60;;;;;;;7.36;68.50;101526.66;6276287;22;20007;-77
2021/03/16 00:37:32;;;;;;;7.35;1.48;;;;;;;7.32;68.68;101528.94;6280409;22;19997;-77
2021/03/16 00:39:58;;;;;;;4.53;1.00;;;;;;;7.32;68.35;101528.94;6273499;22;20035;-77
2021/03/16 00:42:23;;;;;;;8.18;1.55;;;;;;;7.31;68.48;101531.88;6277152;22;20073;-78
2021/03/16 00:44:49;;;;;;;4.38;1.40;;;;;;;7.30;68.96;101533.78;6277191;22;20012;-78
2021/03/16 00:47:14;;;;;;;9.60;1.70;;;;;;;7.30;68.86;101535.66;6277364;22;20015;-75
2021/03/16 00:49:40;;;;;;;3.05;1.30;;;;;;;7.29;69.42;101545.72;6277051;22;20079;-79
2021/03/16 00:52:06;;;;;;;1.90;1.42;;;;;;;7.27;68.69;101530.66;6277971;22;20023;-78
2021/03/16 00:54:31;;;;;;;4.03;1.40;;;;;;;7.27;68.87;101536.09;6281473;22;20034;-77
2021/03/16 00:56:57;;;;;;;2.13;1.02;;;;;;;7.26;69.29;101537.16;6277786;22;20067;-76
2021/03/16 00:59:22;;;;;;;0.95;0.90;;;;;;;7.25;69.81;101538.19;6296307;22;20446;-76
2021/03/16 01:01:47;;;;;;;4.63;1.15;;;;;;;7.24;69.78;101531.09;6310592;22;20018;-79
2021/03/16 01:04:13;;;;;;;2.33;1.45;;;;;;;7.25;69.39;101532.75;6285910;22;20059;-77
2021/03/16 01:06:38;;;;;;;6.53;1.20;;;;;;;7.23;69.59;101529.41;6300590;22;20030;-78
2021/03/16 01:09:04;;;;;;;7.32;1.60;;;;;;;7.16;69.38;101518.56;6286290;22;20114;-77
2021/03/16 01:11:30;;;;;;;3.60;1.48;;;;;;;7.11;69.29;101521.94;6284611;22;20009;-79
2021/03/16 01:13:55;;;;;;;4.32;1.45;;;;;;;7.07;69.87;101528.03;6313727;22;20007;-78
2021/03/16 01:16:21;;;;;;;2.55;1.02;;;;;;;6.99;69.67;101524.50;6278948;22;19999;-77
2021/03/16 01:18:50;;;;;;;2.45;0.88;;;;;;;6.87;69.53;101515.34;6301725;22;20007;-77
2021/03/16 01:21:15;;;;;;;1.50;0.85;;;;;;;6.91;69.97;101521.19;6314301;22;20033;-77
2021/03/16 01:23:41;;;;;;;1.92;0.80;;;;;;;6.87;70.04;101514.50;6311545;22;20082;-77
2021/03/16 01:26:07;;;;;;;0.45;0.45;;;;;;;6.90;69.99;101520.34;6312843;22;19999;-80
2021/03/16 01:28:33;;;;;;;5.78;0.82;;;;;;;6.94;70.05;101526.19;6312839;22;20027;-75
2021/03/16 01:31:00;;;;;;;1.13;0.85;;;;;;;6.98;70.07;101532.88;6310675;22;20004;-76
2021/03/16 01:33:26;;;;;;;0.88;0.70;;;;;;;7.03;69.83;101535.78;6314221;22;20015;-75
2021/03/16 01:35:52;;;;;;;1.10;0.60;;;;;;;7.08;70.02;101533.25;6306628;22;20422;-77
2021/03/16 01:38:17;;;;;;;0.93;0.52;;;;;;;7.18;69.38;101537.41;6312713;22;20027;-76
2021/03/16 01:40:43;;;;;;;7.25;3.05;;;;;;;7.22;69.42;101544.09;6310816;22;20345;-74
2021/03/16 01:43:13;;;;;;;6.85;2.30;;;;;;;7.23;70.15;101538.41;6307536;22;20003;-76
2021/03/16 01:45:40;;;;;;;2.70;1.77;;;;;;;7.21;70.04;101535.06;6298812;22;19999;-79
2021/03/16 01:48:07;;;;;;;2.42;0.93;;;;;;;7.21;70.21;101542.41;6308032;22;20007;-78
2021/03/16 01:50:33;;;;;;;0.98;0.60;;;;;;;7.18;69.46;101542.84;6296371;22;20011;-78
2021/03/16 01:53:00;;;;;;;1.30;0.70;;;;;;;7.14;69.73;101543.28;6281534;22;20010;-78
2021/03/16 01:55:27;;;;;;;5.35;1.98;;;;;;;7.07;69.51;101545.19;6279827;22;20034;-77
2021/03/16 01:57:54;;;;;;;6.00;2.25;;;;;;;7.01;70.60;101543.34;6308559;22;20006;-77
2021/03/16 02:00:21;;;;;;;8.55;2.40;;;;;;;6.93;70.30;101549.00;6284215;22;20101;-77
2021/03/16 02:02:47;;;;;;;9.98;2.63;;;;;;;6.82;70.78;101545.91;6311882;22;20124;-77
2021/03/16 02:05:13;;;;;;;1.75;1.65;;;;;;;6.75;71.14;101539.63;6280941;22;20094;-79
2021/03/16 02:07:48;;;;;;;2.97;1.52;;;;;;;6.68;71.04;101544.25;6309982;22;20441;-75
2021/03/16 02:10:37;;;;;;;4.20;1.75;;;;;;;6.63;71.44;101546.78;6306290;22;20007;-76
2021/03/16 02:13:09;;;;;;;5.35;2.22;;;;;;;6.60;72.24;101541.75;6300006;22;19999;-75
2021/03/16 02:15:38;;;;;;;10.32;1.88;;;;;;;6.61;72.46;101551.59;6309487;22;20009;-76
2021/03/16 02:18:11;;;;;;;5.88;1.90;;;;;;;6.60;72.89;101549.91;6310980;22;20003;-78
2021/03/16 02:20:55;;;;;;;6.80;1.77;;;;;;;6.58;72.79;101547.41;6282718;22;20141;-79
2021/03/16 02:23:55;;;;;;;6.95;2.20;;;;;;;6.52;73.40;101531.13;6282115;22;20037;-75
2021/03/16 02:26:58;;;;;;;3.35;2.28;;;;;;;6.58;73.69;101538.41;6308709;22;20007;-78
2021/03/16 02:29:29;;;;;;;12.32;2.17;;;;;;;6.53;74.07;101525.47;6312120;22;19995;-75
2021/03/16 02:32:03;;;;;;;5.68;1.83;;;;;;;6.53;74.74;101520.03;6280752;22;19999;-76
2021/03/16 02:34:34;;;;;;;8.27;1.95;;;;;;;6.54;75.59;101526.28;6310546;22;20006;-77
2021/03/16 02:37:05;;;;;;;4.80;2.00;;;;;;;6.56;75.29;101540.53;6309108;22;20026;-76
2021/03/16 02:39:34;;;;;;;5.88;1.45;;;;;;;6.56;75.42;101535.09;6304068;22;20037;-75
2021/03/16 02:42:02;;;;;;;2.45;1.73;;;;;;;6.53;75.96;101535.53;6310820;22;20493;-76
2021/03/16 02:44:29;;;;;;;8.02;2.10;;;;;;;6.51;76.04;101532.16;6311355;22;19999;-77
2021/03/16 02:46:57;;;;;;;5.70;2.30;;;;;;;6.46;76.12;101525.47;6256960;22;20011;-76
2021/03/16 02:49:24;;;;;;;2.10;1.70;;;;;;;6.42;76.70;101524.22;6312199;22;20014;-76
2021/03/16 02:51:52;;;;;;;6.88;2.10;;;;;;;6.45;76.84;101515.66;6308096;22;20007;-77
2021/03/16 02:54:20;;;;;;;5.38;2.15;;;;;;;6.43;76.67;101508.78;6280520;22;20053;-71
2021/03/16 02:56:48;;;;;;;9.75;2.70;;;;;;;6.44;76.79;101505.84;6277649;22;20013;-72
2021/03/16 02:59:16;;;;;;;11.25;3.08;;;;;;;6.43;76.79;101512.31;6306710;22;20421;-73
2021/03/16 03:01:42;;;;;;;4.43;2.33;;;;;;;6.45;77.54;101518.38;6276162;22;20338;-73
2021/03/16 03:04:09;;;;;;;4.30;1.98;;;;;;;6.45;77.30;101507.53;6309038;22;20013;-72
2021/03/16 03:06:37;;;;;;;3.38;2.13;;;;;;;6.51;77.19;101508.53;6306835;22;20014;-74
2021/03/16 03:09:04;;;;;;;7.63;2.70;;;;;;;6.54;77.24;101515.44;6284277;22;20026;-74
2021/03/16 03:11:31;;;;;;;4.07;2.40;;;;;;;6.56;76.51;101497.03;6310927;22;19999;-73
2021/03/16 03:13:58;;;;;;;3.72;2.60;;;;;;;6.62;76.43;101504.34;6280480;22;19999;-73
2021/03/16 03:16:24;;;;;;;4.20;2.05;;;;;;;6.63;76.54;101489.72;6311961;22;19999;-75
2021/03/16 03:18:50;;;;;;;5.63;2.50;;;;;;;6.71;76.60;101500.31;6281037;22;20055;-73
2021/03/16 03:21:17;;;;;;;5.13;3.00;;;;;;;6.75;76.83;101490.69;6283686;22;20081;-74
2021/03/16 03:23:49;;;;;;;6.45;3.42;;;;;;;6.80;77.43;101492.78;6307574;22;20026;-72
2021/03/16 03:26:25;;;;;;;2.60;2.40;;;;;;;6.87;77.67;101492.75;6305501;22;20367;-72
2021/03/16 03:28:52;;;;;;;2.33;2.22;;;;;;;6.91;77.11;101488.56;6278428;22;19999;-72
2021/03/16 03:31:18;;;;;;;8.35;2.50;;;;;;;6.89;77.35;101483.34;6282959;22;20018;-72
2021/03/16 03:33:49;;;;;;;4.45;2.63;;;;;;;6.94;77.39;101479.97;6303508;22;20074;-73
2021/03/16 03:36:15;;;;;;;9.02;3.30;;;;;;;6.95;76.94;101478.91;6310841;22;20026;-71
2021/03/16 03:38:41;;;;;;;3.33;2.15;;;;;;;7.00;77.24;101476.38;6299513;22;20337;-74
2021/03/16 03:41:07;;;;;;;5.72;2.53;;;;;;;7.02;77.23;101478.88;6289157;22;20085;-76
2021/03/16 03:43:34;;;;;;;9.77;3.50;;;;;;;7.06;77.17;101483.66;6281816;22;20414;-74
2021/03/16 03:46:03;;;;;;;4.82;2.38;;;;;;;7.10;77.02;101492.25;6282307;22;20003;-75
2021/03/16 03:48:29;;;;;;;5.80;2.70;;;;;;;7.11;76.53;101483.88;6302897;22;20414;-75
2021/03/16 03:50:57;;;;;;;4.43;2.50;;;;;;;7.17;76.31;101476.72;6309511;22;20033;-78
2021/03/16 03:53:25;;;;;;;4.60;3.25;;;;;;;7.22;76.39;101485.06;6282799;22;20022;-77
2021/03/16 03:55:52;;;;;;;3.38;2.30;;;;;;;7.24;76.34;101493.00;6310748;22;19999;-75
2021/03/16 03:58:20;;;;;;;6.93;3.80;;;;;;;7.24;77.27;101482.13;6308957;22;20315;-75
2021/03/16 04:00:46;;;;;;;8.10;3.35;;;;;;;7.26;76.46;101485.47;6301084;22;20011;-75
2021/03/16 04:03:12;;;;;;;6.93;3.70;;;;;;;7.27;77.14;101487.13;6279236;22;20018;-73
2021/03/16 04:05:38;;;;;;;13.90;4.47;;;;;;;7.20;76.69;101470.00;6271337;22;20517;-75
2021/03/16 04:08:05;;;;;;;5.18;3.78;;;;;;;7.28;76.82;101477.91;6310804;22;20003;-76
2021/03/16 04:10:31;;;;;;;10.88;3.92;;;;;;;7.28;77.65;101477.91;6309440;22;19999;-75
2021/03/16 04:12:57;;;;;;;9.00;3.45;;;;;;;7.26;77.22;101480.84;6309252;22;20010;-75
2021/03/16 04:15:25;;;;;;;3.97;3.35;;;;;;;7.26;77.80;101485.47;6304805;22;20439;-75
2021/03/16 04:17:50;;;;;;;8.30;3.55;;;;;;;7.26;77.92;101485.47;6279597;22;20068;-76
2021/03/16 04:20:16;;;;;;;10.40;3.97;;;;;;;7.28;78.16;101480.63;6307518;22;20015;-76
2021/03/16 04:22:43;;;;;;;9.30;4.15;;;;;;;7.26;77.71;101474.59;6301464;22;20426;-74
2021/03/16 04:25:09;;;;;;;6.32;4.57;;;;;;;7.21;78.15;101477.13;6283110;22;20007;-74
2021/03/16 04:27:35;;;;;;;4.85;4.00;;;;;;;7.24;77.67;101487.56;6275460;22;20029;-75
2021/03/16 04:30:01;;;;;;;5.22;4.53;;;;;;;7.22;77.84;101497.84;6281593;22;20014;-74
2021/03/16 04:32:26;;;;;;;7.20;4.32;;;;;;;7.22;78.59;101492.38;6311203;22;20003;-75
2021/03/16 04:34:52;;;;;;;7.63;4.15;;;;;;;7.22;78.39;101500.56;6305042;22;20003;-76
2021/03/16 04:37:18;;;;;;;7.85;4.68;;;;;;;7.21;78.03;101485.28;6310796;22;19999;-74
2021/03/16 04:39:43;;;;;;;4.90;4.45;;;;;;;7.24;78.58;101495.72;6316736;22;20176;-77
2021/03/16 04:42:09;;;;;;;5.07;4.63;;;;;;;7.24;78.17;101495.72;6283665;22;20011;-70
2021/03/16 04:44:35;;;;;;;5.57;4.75;;;;;;;7.19;78.50;101493.66;6281826;22;20387;-71
2021/03/16 04:47:00;;;;;;;8.25;4.63;;;;;;;7.27;78.19;101492.56;6306547;22;20047;-72
2021/03/16 04:49:26;;;;;;;12.63;5.57;;;;;;;7.28;79.17;101488.78;6311541;22;20011;-71
2021/03/16 04:51:51;;;;;;;12.50;6.03;;;;;;;7.26;79.16;101490.91;6311093;22;20014;-72
2021/03/16 04:54:16;;;;;;;11.48;5.15;;;;;;;7.29;79.11;101485.03;6283836;22;20050;-72
2021/03/16 04:56:42;;;;;;;14.05;4.88;;;;;;;7.35;79.43;101473.25;6311526;22;20060;-71
2021/03/16 04:59:08;;;;;;;8.00;6.10;;;;;;;7.38;79.38;101478.25;6307175;22;20019;-71
2021/03/16 05:01:33;;;;;;;14.05;5.88;;;;;;;7.38;79.12;101478.25;6307403;22;20003;-71
2021/03/16 05:03:59;;;;;;;13.57;6.70;;;;;;;7.43;79.87;101475.75;6309412;22;20019;-72
2021/03/16 05:06:24;;;;;;;15.02;7.05;;;;;;;7.43;79.51;101475.75;6278154;22;20191;-71
2021/03/16 05:08:50;;;;;;;10.60;6.35;;;;;;;7.44;80.15;101480.09;6282761;22;20090;-72
2021/03/16 05:11:16;;;;;;;9.50;5.70;;;;;;;7.50;79.30;101471.09;6306600;22;20469;-71
2021/03/16 05:13:41;;;;;;;9.07;6.60;;;;;;;7.51;80.14;101466.47;6283082;22;20014;-70
2021/03/16 05:16:07;;;;;;;11.23;6.60;;;;;;;7.56;80.42;101471.25;6303178;22;20157;-71
2021/03/16 05:18:33;;;;;;;6.93;6.20;;;;;;;7.56;79.68;101466.63;6301917;22;20008;-71
2021/03/16 05:20:59;;;;;;;11.68;7.28;;;;;;;7.62;79.96;101467.63;6278127;22;20082;-70
2021/03/16 05:23:25;;;;;;;7.45;6.70;;;;;;;7.66;79.23;101457.97;6305425;22;20007;-70
2021/03/16 05:25:50;;;;;;;17.98;7.55;;;;;;;7.65;79.52;101456.28;6309491;22;20705;-73
2021/03/16 05:28:16;;;;;;;11.27;7.82;;;;;;;7.64;80.03;101460.09;6303154;22;20008;-70
2021/03/16 05:30:41;;;;;;;13.68;8.40;;;;;;;7.62;80.10;101467.63;6257041;22;20003;-70
2021/03/16 05:33:07;;;;;;;13.57;8.30;;;;;;;7.60;81.76;101469.75;6306895;22;20366;-72
2021/03/16 05:35:33;;;;;;;13.23;9.18;;;;;;;7.66;81.62;101479.75;6302013;22;20311;-71
2021/03/16 05:37:59;;;;;;;18.48;9.90;;;;;;;7.69;82.57;101476.59;6311544;22;20000;-72
2021/03/16 05:40:29;;;;;;;14.13;9.07;;;;;;;7.76;82.83;101474.66;6278411;22;20333;-73
2021/03/16 05:42:56;;;;;;;18.80;10.25;;;;;;;7.83;83.54;101474.59;6310746;22;19995;-72
2021/03/16 05:45:21;;;;;;;13.20;10.23;;;;;;;7.86;83.21;101466.81;6309879;22;20007;-73
2021/03/16 05:47:48;;;;;;;19.92;9.32;;;;;;;7.91;83.75;101454.41;6281539;22;20172;-72
2021/03/16 05:50:15;;;;;;;12.10;9.75;;;;;;;7.98;83.17;101461.47;6308274;22;20007;-72
2021/03/16 05:52:41;;;;;;;12.75;9.43;;;;;;;8.08;83.00;101455.53;6285391;22;20003;-75
2021/03/16 05:55:07;;;;;;;12.43;9.77;;;;;;;8.10;82.28;101461.56;6285306;22;20437;-73
2021/03/16 05:57:33;;;;;;;12.95;8.82;;;;;;;8.08;82.68;101455.53;6308747;22;20000;-75
2021/03/16 05:59:59;;;;;;;10.25;8.50;;;;;;;8.04;82.65;101451.56;6311990;22;20077;-73
2021/03/16 06:02:24;;;;;;;17.67;10.30;;;;;;;8.11;83.73;101468.69;6312477;22;20752;-74
2021/03/16 06:04:50;;;;;;;14.65;9.18;;;;;;;8.10;83.16;101475.19;6313554;22;20035;-74
2021/03/16 06:07:16;;;;;;;9.65;8.32;;;;;;;8.12;84.15;101473.09;6311422;22;20007;-75
2021/03/16 06:09:42;;;;;;;11.80;9.02;;;;;;;8.15;84.02;101467.19;6313733;22;20414;-74
2021/03/16 06:12:09;;;;;;;18.35;8.32;;;;;;;8.20;84.34;101475.50;6311631;22;20029;-75
2021/03/16 06:14:36;;;;;;;9.05;7.70;;;;;;;8.26;83.46;101472.97;6310092;22;20007;-73
2021/03/16 06:17:03;;;;;;;8.63;7.35;;;;;;;8.33;83.44;101473.72;6310941;22;20003;-73
2021/03/16 06:19:33;;;;;;;8.57;7.70;;;;;;;8.41;83.96;101469.88;6304614;22;20034;-73
2021/03/16 06:22:06;;;;;;;7.75;7.03;;;;;;;8.47;83.90;101474.44;6308233;22;20018;-73
2021/03/16 06:24:37;;;;;;;10.43;7.63;;;;;;;8.49;84.67;101467.72;6278969;22;20007;-73
2021/03/16 06:27:02;;;;;;;8.77;6.07;;;;;;;8.55;84.72;101474.97;6304235;22;20015;-74
2021/03/16 06:29:40;;;;;;;7.13;6.38;;;;;;;8.61;84.89;101472.41;6279450;22;20018;-74
2021/03/16 06:32:14;;;;;;;7.78;5.93;;;;;;;8.66;85.16;101470.66;6308561;22;20006;-74
2021/03/16 06:34:40;;;;;;;6.32;4.97;;;;;;;8.73;84.87;101474.16;6308930;22;20003;-74
2021/03/16 06:37:05;;;;;;;4.93;4.63;;;;;;;8.78;85.00;101483.56;6311859;22;20018;-75
2021/03/16 06:39:31;;;;;;;3.45;3.25;;;;;;;8.77;84.72;101487.34;6311989;22;20072;-74
2021/03/16 06:41:56;;;;;;;4.97;4.57;;;;;;;8.81;84.94;101483.09;6281995;22;20087;-73
2021/03/16 06:44:23;;;;;;;4.22;3.85;;;;;;;8.86;85.99;101486.81;6308711;22;20006;-73
2021/03/16 06:46:53;;;;;;;3.97;3.70;;;;;;;8.93;85.20;101485.88;6305269;22;20325;-72
2021/03/16 06:49:21;;;;;;;4.25;4.05;;;;;;;8.98;86.11;101488.75;6308422;22;19999;-73
2021/03/16 06:51:47;;;;;;;4.03;3.83;;;;;;;9.04;85.23;101490.56;6252324;22;20453;-73
2021/03/16 06:54:15;;;;;;;4.13;3.92;;;;;;;9.05;85.24;101487.63;6305731;22;20438;-72
2021/03/16 06:57:02;;;;;;;4.50;4.20;;;;;;;9.14;85.17;101493.59;6305045;22;20011;-73
2021/03/16 06:59:31;;;;;;;4.05;3.75;;;;;;;9.20;84.93;101479.00;6306358;22;20018;-73
2021/03/16 07:01:57;;;;;;;3.80;3.60;;;;;;;9.30;85.08;101491.25;6307384;22;19999;-74
2021/03/16 07:04:24;;;;;;;3.47;3.38;;;;;;;9.39;85.11;101490.72;6249005;22;20007;-74
2021/03/16 07:06:51;;;;;;;4.40;4.00;;;;;;;9.47;84.88;101495.00;6309567;22;20420;-75
2021/03/16 07:09:18;;;;;;;3.72;3.38;;;;;;;9.52;84.61;101484.22;6278151;22;20007;-74
2021/03/16 07:11:50;;;;;;;4.10;3.90;;;;;;;9.56;84.66;101485.44;6306456;22;19999;-73
2021/03/16 07:14:18;;;;;;;4.32;4.05;;;;;;;9.63;84.30;101493.50;6304327;22;20003;-74
2021/03/16 07:16:51;;;;;;;4.30;4.00;;;;;;;9.70;83.57;101504.34;6306735;22;20014;-74
2021/03/16 07:19:18;;;;;;;3.83;3.63;;;;;;;9.76;83.43;101500.66;6278742;22;20053;-73
2021/03/16 07:21:53;;;;;;;4.50;4.20;;;;;;;9.83;83.90;101493.22;6305758;22;20318;-75
2021/03/16 07:24:22;;;;;;;;;;;;;;;9.99;82.71;101494.41;6311596;22;20006;-75
2021/03/16 07:26:48;;;;;;;6.65;4.15;;;;;;;9.99;83.05;101486.22;6281567;22;20340;-78
2021/03/16 07:29:15;;;;;;;4.28;3.88;;;;;;;10.01;82.08;101483.25;6311534;22;20003;-77
2021/03/16 07:31:43;;;;;;;4.75;4.45;;;;;;;10.07;82.31;101494.03;6276020;22;20027;-73
2021/03/16 07:34:10;;;;;;;4.78;4.15;;;;;;;10.14;82.05;101483.84;6284456;22;20011;-76
2021/03/16 07:36:38;;;;;;;4.03;3.78;;;;;;;10.16;81.98;101494.53;6283204;22;20063;-76
2021/03/16 07:39:07;;;;;;;3.97;3.72;;;;;;;10.27;81.56;101499.19;6309058;22;20084;-78
2021/03/16 07:41:37;;;;;;;5.93;4.82;;;;;;;10.41;81.70;101508.00;6309833;22;20307;-75
2021/03/16 07:44:05;;;;;;;4.55;4.28;;;;;;;10.44;80.90;101498.47;6283131;22;20015;-79
2021/03/16 07:46:43;;;;;;;4.40;4.10;;;;;;;10.61;80.80;101510.34;6305362;22;20052;-78
2021/03/16 07:49:11;;;;;;;3.38;3.17;;;;;;;10.65;80.70;101508.81;6280116;22;20007;-76
2021/03/16 07:51:41;;;;;;;3.47;3.38;;;;;;;10.77;79.95;101516.16;6256328;22;20011;-77
2021/03/16 07:54:41;;;;;;;4.53;4.22;;;;;;;10.80;80.24;101507.47;6282664;22;20011;-76
2021/03/16 07:57:08;;;;;;;4.72;4.38;;;;;;;10.81;78.93;101514.63;6308423;22;20318;-76
2021/03/16 07:59:37;;;;;;;4.60;4.32;;;;;;;10.83;79.21;101517.94;6309632;22;20070;-77
2021/03/16 08:02:03;;;;;;;6.03;5.45;;;;;;;10.76;78.39;101517.25;6311408;22;20132;-77
2021/03/16 08:04:34;;;;;;;5.13;4.72;;;;;;;10.74;78.57;101516.66;6282073;22;20007;-76
2021/03/16 08:07:01;;;;;;;4.93;4.45;;;;;;;10.70;78.99;101527.22;6287241;22;20011;-79
2021/03/16 08:09:27;;;;;;;6.72;5.40;;;;;;;10.61;78.72;101515.81;6313750;22;20041;-79
2021/03/16 08:11:53;;;;;;;5.45;5.03;;;;;;;10.58;79.42;101524.50;6285462;22;20010;-78
2021/03/16 08:14:33;;;;;;;5.15;4.72;;;;;;;10.62;78.90;101538.56;6286899;22;20318;-80
2021/03/16 08:17:01;;;;;;;7.32;5.80;;;;;;;10.54;79.14;101528.81;6290549;22;20341;-78
2021/03/16 08:19:40;;;;;;;4.78;4.47;;;;;;;10.66;79.48;101531.53;6253907;22;20007;-76
2021/03/16 08:22:10;;;;;;;4.95;4.65;;;;;;;10.80;79.15;101537.56;6312112;22;19999;-78
2021/03/16 08:24:44;;;;;;;5.63;5.18;;;;;;;10.97;78.78;101533.03;6311757;22;20003;-77
2021/03/16 08:27:17;;;;;;;5.35;4.95;;;;;;;11.06;78.32;101527.19;6286309;22;20031;-78
2021/03/16 08:29:47;;;;;;;5.75;5.40;;;;;;;11.17;77.97;101529.88;6283063;22;20007;-77
2021/03/16 08:32:16;;;;;;;5.07;4.82;;;;;;;11.35;77.73;101536.25;6313492;22;20058;-78
2021/03/16 08:34:42;;;;;;;3.95;3.75;;;;;;;11.65;77.60;101533.25;6260027;22;20329;-76
2021/03/16 08:37:24;;;;;;;6.28;5.88;;;;;;;12.09;76.54;101537.31;6312535;22;20010;-78
2021/03/16 08:39:51;;;;;;;5.97;5.50;;;;;;;12.33;74.94;101533.31;6309484;22;19999;-78
2021/03/16 08:42:18;;;;;;;7.90;5.97;;;;;;;12.66;74.19;101534.34;6316201;22;20003;-80
2021/03/16 08:44:48;;;;;;;7.18;5.43;;;;;;;12.95;72.98;101536.91;6317460;22;20007;-80
2021/03/16 08:47:19;;;;;;;7.10;5.18;;;;;;;13.26;72.00;101543.63;6313679;22;19999;-77
2021/03/16 08:49:49;;;;;;;6.13;5.15;;;;;;;13.26;69.95;101542.81;6312544;22;20617;-77
2021/03/16 08:52:28;;;;;;;4.70;4.40;;;;;;;13.22;70.30;101547.97;6309513;22;20026;-77
2021/03/16 08:54:57;;;;;;;5.28;4.97;;;;;;;13.00;69.48;101547.97;6312344;22;20006;-77
2021/03/16 08:57:26;;;;;;;5.30;4.60;;;;;;;12.65;70.63;101537.34;6313891;22;20006;-77
2021/03/16 08:59:54;;;;;;;5.03;4.55;;;;;;;12.29;72.49;101537.63;6258901;22;20349;-77
2021/03/16 09:02:25;;;;;;;5.90;4.43;;;;;;;12.08;73.90;101541.16;6306048;22;20003;-77
2021/03/16 09:04:51;;;;;;;4.35;4.13;;;;;;;11.91;74.28;101539.19;6313662;22;20006;-77
2021/03/16 09:07:28;;;;;;;4.97;4.68;;;;;;;11.78;74.80;101551.28;6314907;22;20000;-80
2021/03/16 09:10:07;;;;;;;5.35;5.05;;;;;;;11.64;75.19;101545.28;6288825;22;20003;-75
2021/03/16 09:12:35;;;;;;;5.20;4.70;;;;;;;11.51;75.37;101545.59;6306416;22;20452;-75
2021/03/16 09:15:09;;;;;;;7.10;5.95;;;;;;;11.47;75.17;101544.41;6313209;22;20003;-77
2021/03/16 09:17:36;;;;;;;8.63;5.53;;;;;;;11.39;76.03;101553.00;6314094;22;20015;-77
2021/03/16 09:20:11;;;;;;;4.72;4.38;;;;;;;11.38;76.04;101548.63;6313257;22;20010;-76
2021/03/16 09:22:37;;;;;;;5.10;4.80;;;;;;;11.37;75.79;101544.22;6315217;22;20000;-77
2021/03/16 09:25:09;;;;;;;4.80;4.53;;;;;;;11.34;75.84;101535.41;6289078;22;20010;-76
2021/03/16 09:27:39;;;;;;;3.90;3.70;;;;;;;11.44;76.01;101551.22;6312613;22;20011;-74
2021/03/16 09:30:07;;;;;;;4.60;4.13;;;;;;;11.49;76.15;101547.72;6285353;22;20042;-77
2021/03/16 09:32:34;;;;;;;3.92;3.63;;;;;;;11.55;75.36;101546.78;6309523;22;20056;-76
2021/03/16 09:35:00;;;;;;;4.90;3.55;;;;;;;11.75;75.95;101556.44;6308914;22;19999;-77
2021/03/16 09:37:26;;;;;;;7.30;3.25;;;;;;;11.88;75.27;101558.84;6314245;22;20009;-79
2021/03/16 09:39:53;;;;;;;3.58;3.30;;;;;;;12.02;74.36;101557.50;6260715;22;20007;-77
2021/03/16 09:42:29;;;;;;;3.08;2.63;;;;;;;12.16;74.17;101557.16;6311046;22;20061;-78
2021/03/16 09:44:57;;;;;;;2.70;2.50;;;;;;;12.36;73.57;101568.47;6311856;22;20003;-77
2021/03/16 09:47:25;;;;;;;2.47;2.30;;;;;;;12.51;72.46;101553.31;6313140;22;20003;-79
2021/03/16 09:49:50;;;;;;;2.88;2.67;;;;;;;12.66;72.24;101561.78;6310413;22;20003;-76
2021/03/16 09:52:24;;;;;;;2.35;2.22;;;;;;;12.94;72.28;101570.97;6286766;22;20025;-77
2021/03/16 09:54:51;;;;;;;4.28;2.30;;;;;;;13.09;71.47;101565.66;6314541;22;20003;-77
2021/03/16 09:57:17;;;;;;;2.53;2.13;;;;;;;13.21;70.31;101556.47;6307601;22;19991;-77
2021/03/16 09:59:46;;;;;;;2.35;2.17;;;;;;;13.41;70.25;101573.22;6286587;22;20019;-77
2021/03/16 10:02:13;;;;;;;2.45;2.25;;;;;;;13.40;69.55;101563.34;6314528;22;20061;-77
2021/03/16 10:04:51;;;;;;;2.55;2.42;;;;;;;13.47;70.05;101576.03;6281964;22;20394;-77
2021/03/16 10:07:25;;;;;;;2.22;2.05;;;;;;;13.41;69.62;101567.72;6308385;22;20009;-79
2021/03/16 10:09:50;;;;;;;2.33;2.13;;;;;;;13.34;69.79;101572.59;6285441;22;20010;-76
2021/03/16 10:12:22;;;;;;;4.53;2.90;;;;;;;13.33;69.99;101573.66;6285124;22;20078;-77
2021/03/16 10:14:53;;;;;;;1.95;1.85;;;;;;;13.28;70.87;101573.59;6310671;22;20014;-76
2021/03/16 10:17:24;;;;;;;3.05;2.67;;;;;;;13.33;70.80;101570.06;6287741;22;20010;-79
2021/03/16 10:20:05;;;;;;;3.45;1.65;;;;;;;13.39;70.86;101572.66;6312647;22;20013;-78
2021/03/16 10:22:33;;;;;;;4.25;2.03;;;;;;;13.53;70.88;101580.50;6281808;22;19999;-78
2021/03/16 10:25:03;;;;;;;2.90;2.63;;;;;;;13.63;69.77;101568.78;6311252;22;20056;-79
2021/03/16 10:27:35;;;;;;;2.83;1.95;;;;;;;13.93;70.49;101587.50;6314565;22;20011;-78
2021/03/16 10:30:09;;;;;;;1.75;1.65;;;;;;;14.07;68.71;101583.22;6281021;22;20029;-77
2021/03/16 10:32:38;;;;;;;1.92;1.83;;;;;;;14.19;68.54;101585.00;6313493;22;20062;-78
2021/03/16 10:35:04;;;;;;;2.00;1.70;;;;;;;14.29;67.79;101587.81;6307978;22;20083;-76
2021/03/16 10:37:30;;;;;;;3.80;2.00;;;;;;;14.27;67.53;101579.84;6313680;22;19999;-80
2021/03/16 10:39:59;;;;;;;2.05;1.95;;;;;;;14.42;68.25;101583.81;6286849;22;20010;-77
2021/03/16 10:42:24;;;;;;;2.80;2.28;;;;;;;14.60;67.02;101588.06;6286035;22;20065;-76
2021/03/16 10:44:50;;;;;;;2.00;1.90;;;;;;;14.82;66.97;101580.53;6311188;22;20402;-75
2021/03/16 10:47:15;;;;;;;1.60;1.50;;;;;;;15.03;65.70;101579.81;6311736;22;20465;-77
2021/03/16 10:49:40;;;;;;;1.65;1.58;;;;;;;15.44;66.04;101591.00;6311044;22;20003;-77
2021/03/16 10:52:09;;;;;;;2.10;1.20;;;;;;;15.93;64.86;101581.47;6258398;22;20434;-76
2021/03/16 10:54:36;;;;;;;1.98;1.80;;;;;;;16.39;62.90;101584.25;6310615;22;20011;-75
2021/03/16 10:57:03;;;;;;;1.42;1.33;;;;;;;16.85;61.81;101575.06;6303624;22;20419;-76
2021/03/16 10:59:28;;;;;;;1.55;1.45;;;;;;;17.04;58.72;101572.56;6309408;22;20120;-78
2021/03/16 11:01:57;;;;;;;1.48;1.30;;;;;;;17.44;58.17;101579.03;6259759;22;20015;-76
2021/03/16 11:04:22;;;;;;;1.52;1.42;;;;;;;17.72;57.12;101582.19;6303331;22;20003;-76
2021/03/16 11:06:48;;;;;;;1.65;1.55;;;;;;;17.78;56.11;101581.88;6310320;22;20008;-77
2021/03/16 11:09:15;;;;;;;1.70;1.60;;;;;;;17.75;55.39;101581.63;6311896;22;20060;-75
2021/03/16 11:11:41;;;;;;;1.95;1.30;;;;;;;17.63;56.00;101571.72;6310902;22;20010;-78
2021/03/16 11:14:07;;;;;;;1.15;1.13;;;;;;;17.66;56.47;101555.69;6304010;22;20091;-77
2021/03/16 11:16:35;;;;;;;3.05;1.42;;;;;;;17.78;55.13;101550.59;6281535;22;19999;-78
2021/03/16 11:19:01;;;;;;;0.95;0.95;;;;;;;17.86;54.58;101550.00;6284329;22;20004;-77
2021/03/16 11:21:26;;;;;;;1.38;1.27;;;;;;;17.96;55.24;101541.66;6283276;22;20011;-78
2021/03/16 11:23:52;;;;;;;1.88;1.40;;;;;;;18.17;54.12;101541.47;6289273;22;20010;-79
2021/03/16 11:26:18;;;;;;;1.20;1.20;;;;;;;18.44;54.43;101548.41;6307035;22;20029;-76
2021/03/16 11:28:47;;;;;;;1.27;1.17;;;;;;;19.16;54.14;101542.94;6281116;22;20014;-79
2021/03/16 11:31:13;;;;;;;1.23;1.13;;;;;;;20.15;52.49;101561.75;6311281;22;20318;-80
2021/03/16 11:33:41;;;;;;;0.80;0.80;;;;;;;20.58;50.58;101553.22;6281075;22;20098;-76
2021/03/16 11:36:15;;;;;;;1.08;1.00;;;;;;;20.86;50.69;101558.84;6311226;22;19999;-76